sensor_id;sensor_type;location;lat;lon;timestamp;temperature;humidity
51035;DHT22;37062;52.546;13.230;2024-03-25T00:02:16;8.60;99.90
51035;DHT22;37062;52.546;13.230;2024-03-25T00:04:42;8.60;99.90
51035;DHT22;37062;52.546;13.230;2024-03-25T00:07:09;8.50;99.90
51035;DHT22;37062;52.546;13.230;2024-03-25T00:09:37;8.50;99.90
51035;DHT22;37062;52.546;13.230;2024-03-25T00:12:05;8.40;99.90
51035;DHT22;37062;52.546;13.230;2024-03-25T00:14:32;8.40;99.90
51035;DHT22;37062;52.546;13.230;2024-03-25T00:16:59;8.40;99.90
51035;DHT22;37062;52.546;13.230;2024-03-25T00:19:25;8.40;99.90
51035;DHT22;37062;52.546;13.230;2024-03-25T00:21:53;8.30;99.90
51035;DHT22;37062;52.546;13.230;2024-03-25T00:24:20;8.30;99.90
51035;DHT22;37062;52.546;13.230;2024-03-25T00:26:48;8.30;99.90
51035;DHT22;37062;52.546;13.230;2024-03-25T00:29:15;8.40;99.90
51035;DHT22;37062;52.546;13.230;2024-03-25T00:31:42;8.50;99.90
51035;DHT22;37062;52.546;13.230;2024-03-25T00:34:08;8.60;99.90
51035;DHT22;37062;52.546;13.230;2024-03-25T00:36:36;8.60;99.90
51035;DHT22;37062;52.546;13.230;2024-03-25T00:39:02;8.50;99.90
51035;DHT22;37062;52.546;13.230;2024-03-25T00:41:29;8.40;99.90
51035;DHT22;37062;52.546;13.230;2024-03-25T00:43:57;8.50;99.90
51035;DHT22;37062;52.546;13.230;2024-03-25T00:46:25;8.60;99.90
51035;DHT22;37062;52.546;13.230;2024-03-25T00:48:51;8.50;99.90
51035;DHT22;37062;52.546;13.230;2024-03-25T00:51:19;8.50;99.90
51035;DHT22;37062;52.546;13.230;2024-03-25T00:53:46;8.60;99.90
51035;DHT22;37062;52.546;13.230;2024-03-25T00:56:13;8.60;99.90
51035;DHT22;37062;52.546;13.230;2024-03-25T00:58:39;8.60;99.90
51035;DHT22;37062;52.546;13.230;2024-03-25T01:01:08;8.60;99.90
51035;DHT22;37062;52.546;13.230;2024-03-25T01:03:35;8.70;99.90
51035;DHT22;37062;52.546;13.230;2024-03-25T01:06:03;8.70;99.90
51035;DHT22;37062;52.546;13.230;2024-03-25T01:08:30;8.70;99.90
51035;DHT22;37062;52.546;13.230;2024-03-25T01:10:57;8.80;99.90
51035;DHT22;37062;52.546;13.230;2024-03-25T01:13:23;8.80;99.90
51035;DHT22;37062;52.546;13.230;2024-03-25T01:15:51;8.80;99.90
51035;DHT22;37062;52.546;13.230;2024-03-25T01:18:19;8.80;99.90
51035;DHT22;37062;52.546;13.230;2024-03-25T01:20:46;8.80;99.90
51035;DHT22;37062;52.546;13.230;2024-03-25T01:23:13;8.90;99.90
51035;DHT22;37062;52.546;13.230;2024-03-25T01:25:40;8.90;99.90
51035;DHT22;37062;52.546;13.230;2024-03-25T01:28:07;8.90;99.90
51035;DHT22;37062;52.546;13.230;2024-03-25T01:30:34;8.90;99.90
51035;DHT22;37062;52.546;13.230;2024-03-25T01:33:01;8.90;99.90
51035;DHT22;37062;52.546;13.230;2024-03-25T01:35:30;8.90;99.90
51035;DHT22;37062;52.546;13.230;2024-03-25T01:37:56;8.80;99.90
51035;DHT22;37062;52.546;13.230;2024-03-25T01:40:24;8.90;99.90
51035;DHT22;37062;52.546;13.230;2024-03-25T01:42:56;8.80;99.90
51035;DHT22;37062;52.546;13.230;2024-03-25T01:45:24;8.60;99.90
51035;DHT22;37062;52.546;13.230;2024-03-25T01:47:51;8.50;99.90
51035;DHT22;37062;52.546;13.230;2024-03-25T01:50:18;8.30;99.90
51035;DHT22;37062;52.546;13.230;2024-03-25T01:52:46;8.20;99.90
51035;DHT22;37062;52.546;13.230;2024-03-25T01:55:17;8.20;99.90
51035;DHT22;37062;52.546;13.230;2024-03-25T01:57:44;8.20;99.90
51035;DHT22;37062;52.546;13.230;2024-03-25T02:00:12;8.10;99.90
51035;DHT22;37062;52.546;13.230;2024-03-25T02:02:45;8.00;99.90
51035;DHT22;37062;52.546;13.230;2024-03-25T02:05:13;8.00;99.90
51035;DHT22;37062;52.546;13.230;2024-03-25T02:07:41;8.00;99.90
51035;DHT22;37062;52.546;13.230;2024-03-25T02:10:11;7.90;99.90
51035;DHT22;37062;52.546;13.230;2024-03-25T02:12:40;7.90;99.90
51035;DHT22;37062;52.546;13.230;2024-03-25T02:15:09;8.10;99.90
51035;DHT22;37062;52.546;13.230;2024-03-25T02:17:35;8.20;99.90
51035;DHT22;37062;52.546;13.230;2024-03-25T02:20:03;8.30;99.90
51035;DHT22;37062;52.546;13.230;2024-03-25T02:22:31;8.30;99.90
51035;DHT22;37062;52.546;13.230;2024-03-25T02:24:59;8.20;99.90
51035;DHT22;37062;52.546;13.230;2024-03-25T02:27:28;8.20;99.90
51035;DHT22;37062;52.546;13.230;2024-03-25T02:30:02;8.30;99.90
51035;DHT22;37062;52.546;13.230;2024-03-25T02:32:28;8.30;99.90
51035;DHT22;37062;52.546;13.230;2024-03-25T02:34:57;8.30;99.90
51035;DHT22;37062;52.546;13.230;2024-03-25T02:37:24;8.30;99.90
51035;DHT22;37062;52.546;13.230;2024-03-25T02:39:53;8.30;99.90
51035;DHT22;37062;52.546;13.230;2024-03-25T02:42:21;8.30;99.90
51035;DHT22;37062;52.546;13.230;2024-03-25T02:44:50;8.30;99.90
51035;DHT22;37062;52.546;13.230;2024-03-25T02:47:16;8.30;99.90
51035;DHT22;37062;52.546;13.230;2024-03-25T02:49:45;8.30;99.90
51035;DHT22;37062;52.546;13.230;2024-03-25T02:52:12;8.40;99.90
51035;DHT22;37062;52.546;13.230;2024-03-25T02:54:39;8.40;99.90
51035;DHT22;37062;52.546;13.230;2024-03-25T02:57:05;8.40;99.90
51035;DHT22;37062;52.546;13.230;2024-03-25T02:59:32;8.50;99.90
51035;DHT22;37062;52.546;13.230;2024-03-25T03:02:00;8.50;99.90
51035;DHT22;37062;52.546;13.230;2024-03-25T03:04:28;8.50;99.90
51035;DHT22;37062;52.546;13.230;2024-03-25T03:06:54;8.50;99.90
51035;DHT22;37062;52.546;13.230;2024-03-25T03:09:21;8.40;99.90
51035;DHT22;37062;52.546;13.230;2024-03-25T03:11:48;8.40;99.90
51035;DHT22;37062;52.546;13.230;2024-03-25T03:14:15;8.30;99.90
51035;DHT22;37062;52.546;13.230;2024-03-25T03:16:41;8.30;99.90
51035;DHT22;37062;52.546;13.230;2024-03-25T03:19:10;8.40;99.90
51035;DHT22;37062;52.546;13.230;2024-03-25T03:21:36;8.30;99.90
51035;DHT22;37062;52.546;13.230;2024-03-25T03:24:04;8.30;99.90
51035;DHT22;37062;52.546;13.230;2024-03-25T03:26:31;8.30;99.90
51035;DHT22;37062;52.546;13.230;2024-03-25T03:28:58;8.30;99.90
51035;DHT22;37062;52.546;13.230;2024-03-25T03:31:25;8.30;99.90
51035;DHT22;37062;52.546;13.230;2024-03-25T03:33:53;8.30;99.90
51035;DHT22;37062;52.546;13.230;2024-03-25T03:36:22;8.30;99.90
51035;DHT22;37062;52.546;13.230;2024-03-25T03:38:50;8.20;99.90
51035;DHT22;37062;52.546;13.230;2024-03-25T03:41:17;8.20;99.90
51035;DHT22;37062;52.546;13.230;2024-03-25T03:43:44;8.00;99.90
51035;DHT22;37062;52.546;13.230;2024-03-25T03:46:10;8.00;99.90
51035;DHT22;37062;52.546;13.230;2024-03-25T03:48:38;8.10;99.90
51035;DHT22;37062;52.546;13.230;2024-03-25T03:51:05;8.00;99.90
51035;DHT22;37062;52.546;13.230;2024-03-25T03:53:34;8.10;99.90
51035;DHT22;37062;52.546;13.230;2024-03-25T03:56:02;8.10;99.90
51035;DHT22;37062;52.546;13.230;2024-03-25T03:58:30;8.00;99.90
51035;DHT22;37062;52.546;13.230;2024-03-25T04:00:56;8.10;99.90
51035;DHT22;37062;52.546;13.230;2024-03-25T04:03:23;8.20;99.90
51035;DHT22;37062;52.546;13.230;2024-03-25T04:05:50;8.30;99.90
51035;DHT22;37062;52.546;13.230;2024-03-25T04:08:17;8.30;99.90
51035;DHT22;37062;52.546;13.230;2024-03-25T04:10:45;8.30;99.90
51035;DHT22;37062;52.546;13.230;2024-03-25T04:13:13;8.30;99.90
51035;DHT22;37062;52.546;13.230;2024-03-25T04:15:39;8.30;99.90
51035;DHT22;37062;52.546;13.230;2024-03-25T04:18:08;8.30;99.90
51035;DHT22;37062;52.546;13.230;2024-03-25T04:20:38;8.20;99.90
51035;DHT22;37062;52.546;13.230;2024-03-25T04:23:05;8.00;99.90
51035;DHT22;37062;52.546;13.230;2024-03-25T04:25:33;8.00;99.90
51035;DHT22;37062;52.546;13.230;2024-03-25T04:28:01;8.00;99.90
51035;DHT22;37062;52.546;13.230;2024-03-25T04:30:28;8.00;99.90
51035;DHT22;37062;52.546;13.230;2024-03-25T04:32:55;8.10;99.90
51035;DHT22;37062;52.546;13.230;2024-03-25T04:35:24;8.20;99.90
51035;DHT22;37062;52.546;13.230;2024-03-25T04:37:51;8.30;99.90
51035;DHT22;37062;52.546;13.230;2024-03-25T04:40:18;8.30;99.90
51035;DHT22;37062;52.546;13.230;2024-03-25T04:42:44;8.30;99.90
51035;DHT22;37062;52.546;13.230;2024-03-25T04:45:12;8.40;99.90
51035;DHT22;37062;52.546;13.230;2024-03-25T04:47:39;8.30;99.90
51035;DHT22;37062;52.546;13.230;2024-03-25T04:50:06;8.20;99.90
51035;DHT22;37062;52.546;13.230;2024-03-25T04:52:33;8.20;99.90
51035;DHT22;37062;52.546;13.230;2024-03-25T04:54:59;8.20;99.90
51035;DHT22;37062;52.546;13.230;2024-03-25T04:57:25;8.20;99.90
51035;DHT22;37062;52.546;13.230;2024-03-25T04:59:52;8.30;99.90
51035;DHT22;37062;52.546;13.230;2024-03-25T05:02:19;8.30;99.90
51035;DHT22;37062;52.546;13.230;2024-03-25T05:04:46;8.30;99.90
51035;DHT22;37062;52.546;13.230;2024-03-25T05:07:12;8.30;99.90
51035;DHT22;37062;52.546;13.230;2024-03-25T05:09:38;8.30;99.90
51035;DHT22;37062;52.546;13.230;2024-03-25T05:12:05;8.30;99.90
51035;DHT22;37062;52.546;13.230;2024-03-25T05:14:31;8.30;99.90
51035;DHT22;37062;52.546;13.230;2024-03-25T05:16:58;8.30;99.90
51035;DHT22;37062;52.546;13.230;2024-03-25T05:19:25;8.30;99.90
51035;DHT22;37062;52.546;13.230;2024-03-25T05:21:52;8.30;99.90
51035;DHT22;37062;52.546;13.230;2024-03-25T05:24:18;8.30;99.90
51035;DHT22;37062;52.546;13.230;2024-03-25T05:26:45;8.20;99.90
51035;DHT22;37062;52.546;13.230;2024-03-25T05:29:11;8.20;99.90
51035;DHT22;37062;52.546;13.230;2024-03-25T05:31:37;8.20;99.90
51035;DHT22;37062;52.546;13.230;2024-03-25T05:34:04;8.20;99.90
51035;DHT22;37062;52.546;13.230;2024-03-25T05:36:32;8.20;99.90
51035;DHT22;37062;52.546;13.230;2024-03-25T05:38:58;8.20;99.90
51035;DHT22;37062;52.546;13.230;2024-03-25T05:41:24;8.20;99.90
51035;DHT22;37062;52.546;13.230;2024-03-25T05:43:51;8.20;99.90
51035;DHT22;37062;52.546;13.230;2024-03-25T05:46:17;8.30;99.90
51035;DHT22;37062;52.546;13.230;2024-03-25T05:48:43;8.30;99.90
51035;DHT22;37062;52.546;13.230;2024-03-25T05:51:10;8.30;99.90
51035;DHT22;37062;52.546;13.230;2024-03-25T05:53:37;8.40;99.90
51035;DHT22;37062;52.546;13.230;2024-03-25T05:56:04;8.40;99.90
51035;DHT22;37062;52.546;13.230;2024-03-25T05:58:31;8.40;99.90
51035;DHT22;37062;52.546;13.230;2024-03-25T06:00:57;8.40;99.90
51035;DHT22;37062;52.546;13.230;2024-03-25T06:03:23;8.40;99.90
51035;DHT22;37062;52.546;13.230;2024-03-25T06:05:50;8.50;99.90
51035;DHT22;37062;52.546;13.230;2024-03-25T06:08:16;8.40;99.90
51035;DHT22;37062;52.546;13.230;2024-03-25T06:10:45;8.50;99.90
51035;DHT22;37062;52.546;13.230;2024-03-25T06:13:11;8.50;99.90
51035;DHT22;37062;52.546;13.230;2024-03-25T06:15:37;8.50;99.90
51035;DHT22;37062;52.546;13.230;2024-03-25T06:18:04;8.60;99.90
51035;DHT22;37062;52.546;13.230;2024-03-25T06:20:30;8.60;99.90
51035;DHT22;37062;52.546;13.230;2024-03-25T06:22:57;8.70;99.90
51035;DHT22;37062;52.546;13.230;2024-03-25T06:25:23;8.70;99.90
51035;DHT22;37062;52.546;13.230;2024-03-25T06:27:51;8.70;99.90
51035;DHT22;37062;52.546;13.230;2024-03-25T06:30:17;8.70;99.90
51035;DHT22;37062;52.546;13.230;2024-03-25T06:33:02;8.70;99.90
51035;DHT22;37062;52.546;13.230;2024-03-25T06:35:49;8.70;99.90
51035;DHT22;37062;52.546;13.230;2024-03-25T06:38:16;8.70;99.90
51035;DHT22;37062;52.546;13.230;2024-03-25T06:40:42;8.70;99.90
51035;DHT22;37062;52.546;13.230;2024-03-25T06:43:10;8.70;99.90
51035;DHT22;37062;52.546;13.230;2024-03-25T06:45:37;8.70;99.90
51035;DHT22;37062;52.546;13.230;2024-03-25T06:48:04;8.70;99.90
51035;DHT22;37062;52.546;13.230;2024-03-25T06:50:30;8.70;99.90
51035;DHT22;37062;52.546;13.230;2024-03-25T06:52:57;8.80;99.90
51035;DHT22;37062;52.546;13.230;2024-03-25T06:55:23;8.80;99.90
51035;DHT22;37062;52.546;13.230;2024-03-25T06:57:49;8.80;99.90
51035;DHT22;37062;52.546;13.230;2024-03-25T07:00:18;8.80;99.90
51035;DHT22;37062;52.546;13.230;2024-03-25T07:02:44;8.70;99.90
51035;DHT22;37062;52.546;13.230;2024-03-25T07:05:10;8.70;99.90
51035;DHT22;37062;52.546;13.230;2024-03-25T07:07:37;8.70;99.90
51035;DHT22;37062;52.546;13.230;2024-03-25T07:10:04;8.80;99.90
51035;DHT22;37062;52.546;13.230;2024-03-25T07:12:30;8.80;99.90
51035;DHT22;37062;52.546;13.230;2024-03-25T07:14:56;8.90;99.90
51035;DHT22;37062;52.546;13.230;2024-03-25T07:17:24;8.90;99.90
51035;DHT22;37062;52.546;13.230;2024-03-25T07:19:51;8.90;99.90
51035;DHT22;37062;52.546;13.230;2024-03-25T07:22:17;8.80;99.90
51035;DHT22;37062;52.546;13.230;2024-03-25T07:24:44;8.80;99.90
51035;DHT22;37062;52.546;13.230;2024-03-25T07:27:10;8.90;99.90
51035;DHT22;37062;52.546;13.230;2024-03-25T07:29:37;9.00;99.90
51035;DHT22;37062;52.546;13.230;2024-03-25T07:32:03;8.90;99.90
51035;DHT22;37062;52.546;13.230;2024-03-25T07:34:31;8.90;99.90
51035;DHT22;37062;52.546;13.230;2024-03-25T07:36:58;8.80;99.90
51035;DHT22;37062;52.546;13.230;2024-03-25T07:39:24;8.70;99.90
51035;DHT22;37062;52.546;13.230;2024-03-25T07:41:50;8.70;99.90
51035;DHT22;37062;52.546;13.230;2024-03-25T07:44:17;8.60;99.90
51035;DHT22;37062;52.546;13.230;2024-03-25T07:46:43;8.40;99.90
51035;DHT22;37062;52.546;13.230;2024-03-25T07:49:09;8.50;99.90
51035;DHT22;37062;52.546;13.230;2024-03-25T07:51:37;8.50;99.90
51035;DHT22;37062;52.546;13.230;2024-03-25T07:54:04;8.50;99.90
51035;DHT22;37062;52.546;13.230;2024-03-25T07:56:30;8.40;99.90
51035;DHT22;37062;52.546;13.230;2024-03-25T07:58:56;8.40;99.90
51035;DHT22;37062;52.546;13.230;2024-03-25T08:01:23;8.60;99.90
51035;DHT22;37062;52.546;13.230;2024-03-25T08:03:49;8.60;99.90
51035;DHT22;37062;52.546;13.230;2024-03-25T08:06:16;8.70;99.90
51035;DHT22;37062;52.546;13.230;2024-03-25T08:08:43;8.80;99.90
51035;DHT22;37062;52.546;13.230;2024-03-25T08:11:10;9.00;99.90
51035;DHT22;37062;52.546;13.230;2024-03-25T08:13:37;9.10;99.90
51035;DHT22;37062;52.546;13.230;2024-03-25T08:16:03;9.40;99.90
51035;DHT22;37062;52.546;13.230;2024-03-25T08:18:30;9.70;99.90
51035;DHT22;37062;52.546;13.230;2024-03-25T08:20:56;9.90;99.90
51035;DHT22;37062;52.546;13.230;2024-03-25T08:23:22;10.20;99.90
51035;DHT22;37062;52.546;13.230;2024-03-25T08:25:50;10.40;99.90
51035;DHT22;37062;52.546;13.230;2024-03-25T08:28:17;10.60;99.90
51035;DHT22;37062;52.546;13.230;2024-03-25T08:30:44;10.90;99.90
51035;DHT22;37062;52.546;13.230;2024-03-25T08:33:10;11.10;99.90
51035;DHT22;37062;52.546;13.230;2024-03-25T08:35:37;11.30;99.90
51035;DHT22;37062;52.546;13.230;2024-03-25T08:38:04;11.10;99.90
51035;DHT22;37062;52.546;13.230;2024-03-25T08:40:30;10.90;99.90
51035;DHT22;37062;52.546;13.230;2024-03-25T08:42:58;10.80;99.90
51035;DHT22;37062;52.546;13.230;2024-03-25T08:45:24;10.70;99.90
51035;DHT22;37062;52.546;13.230;2024-03-25T08:47:51;10.60;99.90
51035;DHT22;37062;52.546;13.230;2024-03-25T08:50:17;10.40;99.90
51035;DHT22;37062;52.546;13.230;2024-03-25T08:52:43;10.50;99.90
51035;DHT22;37062;52.546;13.230;2024-03-25T08:55:10;10.60;99.90
51035;DHT22;37062;52.546;13.230;2024-03-25T08:57:36;10.70;99.90
51035;DHT22;37062;52.546;13.230;2024-03-25T09:00:05;10.60;99.90
51035;DHT22;37062;52.546;13.230;2024-03-25T09:02:32;10.60;99.90
51035;DHT22;37062;52.546;13.230;2024-03-25T09:04:58;10.60;99.90
51035;DHT22;37062;52.546;13.230;2024-03-25T09:07:24;10.70;99.90
51035;DHT22;37062;52.546;13.230;2024-03-25T09:09:51;10.60;99.90
51035;DHT22;37062;52.546;13.230;2024-03-25T09:12:37;10.40;99.90
51035;DHT22;37062;52.546;13.230;2024-03-25T09:15:06;10.20;99.90
51035;DHT22;37062;52.546;13.230;2024-03-25T09:17:33;10.20;99.90
51035;DHT22;37062;52.546;13.230;2024-03-25T09:19:59;10.30;99.90
51035;DHT22;37062;52.546;13.230;2024-03-25T09:22:25;10.50;99.90
51035;DHT22;37062;52.546;13.230;2024-03-25T09:24:52;10.70;99.90
51035;DHT22;37062;52.546;13.230;2024-03-25T09:27:18;10.80;99.90
51035;DHT22;37062;52.546;13.230;2024-03-25T09:29:44;10.90;99.90
51035;DHT22;37062;52.546;13.230;2024-03-25T09:32:12;10.90;99.90
51035;DHT22;37062;52.546;13.230;2024-03-25T09:34:38;11.00;99.90
51035;DHT22;37062;52.546;13.230;2024-03-25T09:37:05;11.10;99.90
51035;DHT22;37062;52.546;13.230;2024-03-25T09:39:32;11.30;99.90
51035;DHT22;37062;52.546;13.230;2024-03-25T09:42:01;11.40;99.90
51035;DHT22;37062;52.546;13.230;2024-03-25T09:44:32;11.60;99.90
51035;DHT22;37062;52.546;13.230;2024-03-25T09:47:00;11.80;99.90
51035;DHT22;37062;52.546;13.230;2024-03-25T09:49:29;11.90;99.90
51035;DHT22;37062;52.546;13.230;2024-03-25T09:51:56;11.90;99.90
51035;DHT22;37062;52.546;13.230;2024-03-25T09:54:22;11.90;99.90
51035;DHT22;37062;52.546;13.230;2024-03-25T09:56:49;12.00;99.90
51035;DHT22;37062;52.546;13.230;2024-03-25T09:59:17;12.10;99.90
51035;DHT22;37062;52.546;13.230;2024-03-25T10:01:43;12.10;99.90
51035;DHT22;37062;52.546;13.230;2024-03-25T10:04:10;12.10;99.90
51035;DHT22;37062;52.546;13.230;2024-03-25T10:06:39;12.20;99.90
51035;DHT22;37062;52.546;13.230;2024-03-25T10:09:06;12.30;99.90
51035;DHT22;37062;52.546;13.230;2024-03-25T10:11:32;12.30;99.90
51035;DHT22;37062;52.546;13.230;2024-03-25T10:13:59;12.50;99.90
51035;DHT22;37062;52.546;13.230;2024-03-25T10:16:25;12.50;99.90
51035;DHT22;37062;52.546;13.230;2024-03-25T10:18:51;12.10;99.90
51035;DHT22;37062;52.546;13.230;2024-03-25T10:21:20;11.90;99.90
51035;DHT22;37062;52.546;13.230;2024-03-25T10:23:48;11.70;99.90
51035;DHT22;37062;52.546;13.230;2024-03-25T10:26:27;11.60;99.90
51035;DHT22;37062;52.546;13.230;2024-03-25T10:29:01;11.70;99.90
51035;DHT22;37062;52.546;13.230;2024-03-25T10:31:27;11.70;99.90
51035;DHT22;37062;52.546;13.230;2024-03-25T10:33:57;11.80;99.90
51035;DHT22;37062;52.546;13.230;2024-03-25T10:36:25;11.90;99.90
51035;DHT22;37062;52.546;13.230;2024-03-25T10:38:55;12.00;99.90
51035;DHT22;37062;52.546;13.230;2024-03-25T10:41:22;12.20;99.90
51035;DHT22;37062;52.546;13.230;2024-03-25T10:43:49;12.30;99.90
51035;DHT22;37062;52.546;13.230;2024-03-25T10:46:18;12.40;99.90
51035;DHT22;37062;52.546;13.230;2024-03-25T10:48:52;12.70;99.90
51035;DHT22;37062;52.546;13.230;2024-03-25T10:51:21;12.80;99.90
51035;DHT22;37062;52.546;13.230;2024-03-25T10:53:52;12.80;99.90
51035;DHT22;37062;52.546;13.230;2024-03-25T10:56:21;12.80;99.90
51035;DHT22;37062;52.546;13.230;2024-03-25T10:58:48;12.80;99.90
51035;DHT22;37062;52.546;13.230;2024-03-25T11:01:17;12.90;99.90
51035;DHT22;37062;52.546;13.230;2024-03-25T11:03:45;12.70;99.90
51035;DHT22;37062;52.546;13.230;2024-03-25T11:06:12;12.50;99.90
51035;DHT22;37062;52.546;13.230;2024-03-25T11:08:38;12.70;99.90
51035;DHT22;37062;52.546;13.230;2024-03-25T11:11:07;13.00;99.90
51035;DHT22;37062;52.546;13.230;2024-03-25T11:13:34;13.30;99.90
51035;DHT22;37062;52.546;13.230;2024-03-25T11:16:00;13.40;99.90
51035;DHT22;37062;52.546;13.230;2024-03-25T11:18:27;13.40;99.90
51035;DHT22;37062;52.546;13.230;2024-03-25T11:21:03;13.50;99.90
51035;DHT22;37062;52.546;13.230;2024-03-25T11:23:38;13.60;99.90
51035;DHT22;37062;52.546;13.230;2024-03-25T11:26:18;13.60;99.90
51035;DHT22;37062;52.546;13.230;2024-03-25T11:28:44;13.50;99.90
51035;DHT22;37062;52.546;13.230;2024-03-25T11:31:11;13.40;99.90
51035;DHT22;37062;52.546;13.230;2024-03-25T11:33:37;13.40;99.90
51035;DHT22;37062;52.546;13.230;2024-03-25T11:36:05;13.40;99.90
51035;DHT22;37062;52.546;13.230;2024-03-25T11:38:31;13.50;99.90
51035;DHT22;37062;52.546;13.230;2024-03-25T11:40:58;13.70;99.90
51035;DHT22;37062;52.546;13.230;2024-03-25T11:43:25;13.80;99.90
51035;DHT22;37062;52.546;13.230;2024-03-25T11:45:52;13.70;99.90
51035;DHT22;37062;52.546;13.230;2024-03-25T11:48:19;13.50;99.90
51035;DHT22;37062;52.546;13.230;2024-03-25T11:50:46;13.30;99.90
51035;DHT22;37062;52.546;13.230;2024-03-25T11:53:16;13.50;99.90
51035;DHT22;37062;52.546;13.230;2024-03-25T11:55:46;13.70;99.90
51035;DHT22;37062;52.546;13.230;2024-03-25T11:58:12;13.90;99.90
51035;DHT22;37062;52.546;13.230;2024-03-25T12:00:44;14.00;99.90
51035;DHT22;37062;52.546;13.230;2024-03-25T12:03:13;14.00;99.90
51035;DHT22;37062;52.546;13.230;2024-03-25T12:05:41;13.90;99.90
51035;DHT22;37062;52.546;13.230;2024-03-25T12:08:08;13.70;99.90
51035;DHT22;37062;52.546;13.230;2024-03-25T12:10:35;13.50;99.90
51035;DHT22;37062;52.546;13.230;2024-03-25T12:13:23;13.20;99.90
51035;DHT22;37062;52.546;13.230;2024-03-25T12:15:51;13.30;99.90
51035;DHT22;37062;52.546;13.230;2024-03-25T12:18:18;13.00;99.90
51035;DHT22;37062;52.546;13.230;2024-03-25T12:20:45;12.70;99.90
51035;DHT22;37062;52.546;13.230;2024-03-25T12:23:11;12.60;99.90
51035;DHT22;37062;52.546;13.230;2024-03-25T12:25:38;12.30;99.90
51035;DHT22;37062;52.546;13.230;2024-03-25T12:28:08;12.50;99.90
51035;DHT22;37062;52.546;13.230;2024-03-25T12:30:49;12.40;99.90
51035;DHT22;37062;52.546;13.230;2024-03-25T12:33:18;12.40;99.90
51035;DHT22;37062;52.546;13.230;2024-03-25T12:35:46;12.10;99.90
51035;DHT22;37062;52.546;13.230;2024-03-25T12:38:25;12.10;99.90
51035;DHT22;37062;52.546;13.230;2024-03-25T12:40:53;12.40;99.90
51035;DHT22;37062;52.546;13.230;2024-03-25T12:43:19;12.50;99.90
51035;DHT22;37062;52.546;13.230;2024-03-25T12:45:46;12.70;99.90
51035;DHT22;37062;52.546;13.230;2024-03-25T12:48:13;12.80;99.90
51035;DHT22;37062;52.546;13.230;2024-03-25T12:50:41;13.10;99.90
51035;DHT22;37062;52.546;13.230;2024-03-25T12:53:07;13.20;99.90
51035;DHT22;37062;52.546;13.230;2024-03-25T12:55:34;13.20;99.90
51035;DHT22;37062;52.546;13.230;2024-03-25T12:58:00;12.90;99.90
51035;DHT22;37062;52.546;13.230;2024-03-25T13:00:27;12.70;99.90
51035;DHT22;37062;52.546;13.230;2024-03-25T13:02:53;12.70;99.90
51035;DHT22;37062;52.546;13.230;2024-03-25T13:05:19;12.40;99.90
51035;DHT22;37062;52.546;13.230;2024-03-25T13:07:47;12.40;99.90
51035;DHT22;37062;52.546;13.230;2024-03-25T13:10:13;12.50;99.90
51035;DHT22;37062;52.546;13.230;2024-03-25T13:12:40;12.70;99.90
51035;DHT22;37062;52.546;13.230;2024-03-25T13:15:07;13.00;99.90
51035;DHT22;37062;52.546;13.230;2024-03-25T13:17:34;13.20;99.90
51035;DHT22;37062;52.546;13.230;2024-03-25T13:20:00;13.30;99.90
51035;DHT22;37062;52.546;13.230;2024-03-25T13:22:26;13.50;99.90
51035;DHT22;37062;52.546;13.230;2024-03-25T13:24:54;13.50;99.90
51035;DHT22;37062;52.546;13.230;2024-03-25T13:27:21;13.40;99.90
51035;DHT22;37062;52.546;13.230;2024-03-25T13:29:47;13.30;99.90
51035;DHT22;37062;52.546;13.230;2024-03-25T13:32:13;13.20;99.90
51035;DHT22;37062;52.546;13.230;2024-03-25T13:34:40;13.10;99.90
51035;DHT22;37062;52.546;13.230;2024-03-25T13:37:09;13.30;99.90
51035;DHT22;37062;52.546;13.230;2024-03-25T13:39:35;13.50;99.90
51035;DHT22;37062;52.546;13.230;2024-03-25T13:42:03;13.80;99.90
51035;DHT22;37062;52.546;13.230;2024-03-25T13:44:30;13.90;99.90
51035;DHT22;37062;52.546;13.230;2024-03-25T13:46:57;14.00;99.90
51035;DHT22;37062;52.546;13.230;2024-03-25T13:49:23;14.00;99.90
51035;DHT22;37062;52.546;13.230;2024-03-25T13:51:51;14.00;99.90
51035;DHT22;37062;52.546;13.230;2024-03-25T13:54:21;14.10;99.90
51035;DHT22;37062;52.546;13.230;2024-03-25T13:56:48;14.20;99.90
51035;DHT22;37062;52.546;13.230;2024-03-25T13:59:15;14.20;99.90
51035;DHT22;37062;52.546;13.230;2024-03-25T14:01:42;14.20;99.90
51035;DHT22;37062;52.546;13.230;2024-03-25T14:04:08;14.00;99.90
51035;DHT22;37062;52.546;13.230;2024-03-25T14:06:34;13.70;99.90
51035;DHT22;37062;52.546;13.230;2024-03-25T14:09:01;13.40;99.90
51035;DHT22;37062;52.546;13.230;2024-03-25T14:11:27;13.10;99.90
51035;DHT22;37062;52.546;13.230;2024-03-25T14:13:53;13.10;99.90
51035;DHT22;37062;52.546;13.230;2024-03-25T14:16:22;12.90;99.90
51035;DHT22;37062;52.546;13.230;2024-03-25T14:18:48;12.90;99.90
51035;DHT22;37062;52.546;13.230;2024-03-25T14:21:14;13.00;99.90
51035;DHT22;37062;52.546;13.230;2024-03-25T14:23:41;12.80;99.90
51035;DHT22;37062;52.546;13.230;2024-03-25T14:26:07;13.10;99.90
51035;DHT22;37062;52.546;13.230;2024-03-25T14:28:33;13.20;99.90
51035;DHT22;37062;52.546;13.230;2024-03-25T14:31:00;13.10;99.90
51035;DHT22;37062;52.546;13.230;2024-03-25T14:33:27;13.00;99.90
51035;DHT22;37062;52.546;13.230;2024-03-25T14:35:54;13.00;99.90
51035;DHT22;37062;52.546;13.230;2024-03-25T14:38:20;13.10;99.90
51035;DHT22;37062;52.546;13.230;2024-03-25T14:40:46;13.20;99.90
51035;DHT22;37062;52.546;13.230;2024-03-25T14:43:13;13.10;99.90
51035;DHT22;37062;52.546;13.230;2024-03-25T14:45:39;13.20;99.90
51035;DHT22;37062;52.546;13.230;2024-03-25T14:48:06;13.20;99.90
51035;DHT22;37062;52.546;13.230;2024-03-25T14:50:34;13.10;99.90
51035;DHT22;37062;52.546;13.230;2024-03-25T14:53:00;13.00;99.90
51035;DHT22;37062;52.546;13.230;2024-03-25T14:55:28;12.90;99.90
51035;DHT22;37062;52.546;13.230;2024-03-25T14:57:54;13.00;99.90
51035;DHT22;37062;52.546;13.230;2024-03-25T15:00:21;13.00;99.90
51035;DHT22;37062;52.546;13.230;2024-03-25T15:02:47;13.00;99.90
51035;DHT22;37062;52.546;13.230;2024-03-25T15:05:14;13.00;99.90
51035;DHT22;37062;52.546;13.230;2024-03-25T15:07:41;12.80;99.90
51035;DHT22;37062;52.546;13.230;2024-03-25T15:10:08;12.60;99.90
51035;DHT22;37062;52.546;13.230;2024-03-25T15:12:34;12.40;99.90
51035;DHT22;37062;52.546;13.230;2024-03-25T15:15:02;12.20;99.90
51035;DHT22;37062;52.546;13.230;2024-03-25T15:17:29;12.00;99.90
51035;DHT22;37062;52.546;13.230;2024-03-25T15:19:56;11.80;99.90
51035;DHT22;37062;52.546;13.230;2024-03-25T15:22:22;11.80;99.90
51035;DHT22;37062;52.546;13.230;2024-03-25T15:24:51;11.80;99.90
51035;DHT22;37062;52.546;13.230;2024-03-25T15:27:18;11.80;99.90